createdAt,value
2022-09-07T00:00:58.326Z,97906.62
2022-09-07T00:03:26.106Z,97898.90
2022-09-07T00:05:53.874Z,97900.59
2022-09-07T00:08:25.175Z,97900.70
2022-09-07T00:10:59.329Z,97905.91
2022-09-07T00:13:31.026Z,97913.84
2022-09-07T00:16:00.323Z,97910.20
2022-09-07T00:18:28.344Z,97915.88
2022-09-07T00:21:03.759Z,97912.89
2022-09-07T00:23:31.930Z,97907.65
2022-09-07T00:26:04.202Z,97904.92
2022-09-07T00:28:32.476Z,97906.28
2022-09-07T00:31:00.421Z,97899.23
2022-09-07T00:33:28.798Z,97893.25
2022-09-07T00:35:58.759Z,97896.77
2022-09-07T00:38:26.372Z,97890.75
2022-09-07T00:40:53.966Z,97894.73
2022-09-07T00:43:41.786Z,97896.35
2022-09-07T00:46:20.756Z,97891.83
2022-09-07T00:49:02.848Z,97884.79
2022-09-07T00:51:41.626Z,97876.85
2022-09-07T00:54:14.605Z,97867.30
2022-09-07T00:56:44.131Z,97865.04
2022-09-07T00:59:16.256Z,97873.94
2022-09-07T01:01:45.012Z,97881.55
2022-09-07T01:04:14.215Z,97889.73
2022-09-07T01:06:42.975Z,97886.42
2022-09-07T01:09:15.436Z,97891.88
2022-09-07T01:11:45.342Z,97885.28
2022-09-07T01:14:15.407Z,97891.31
2022-09-07T01:17:11.162Z,97892.10
2022-09-07T01:20:28.572Z,97886.19
2022-09-07T01:23:33.938Z,97890.28
2022-09-07T01:26:26.770Z,97884.36
2022-09-07T01:29:11.816Z,97881.59
2022-09-07T01:31:51.049Z,97885.91
2022-09-07T01:34:23.368Z,97884.75
2022-09-07T01:36:59.083Z,97887.01
2022-09-07T01:39:41.391Z,97880.41
2022-09-07T01:42:13.462Z,97869.70
2022-09-07T01:44:49.631Z,97867.55
2022-09-07T01:47:37.879Z,97865.61
2022-09-07T01:50:11.070Z,97855.48
2022-09-07T01:53:10.001Z,97857.42
2022-09-07T01:55:47.099Z,97853.11
2022-09-07T01:58:56.757Z,97851.53
2022-09-07T02:01:55.595Z,97850.27
2022-09-07T02:04:45.643Z,97849.73
2022-09-07T02:07:30.518Z,97848.84
2022-09-07T02:10:12.791Z,97843.61
2022-09-07T02:12:48.003Z,97844.55
2022-09-07T02:15:24.000Z,97834.56
2022-09-07T02:17:57.169Z,97845.30
2022-09-07T02:20:32.974Z,97852.22
2022-09-07T02:23:05.158Z,97855.62
2022-09-07T02:25:59.224Z,97853.36
2022-09-07T02:28:32.666Z,97845.32
2022-09-07T02:31:01.062Z,97847.15
2022-09-07T02:33:29.676Z,97839.76
2022-09-07T02:35:58.463Z,97833.73
2022-09-07T02:38:26.272Z,97828.17
2022-09-07T02:40:57.075Z,97830.54
2022-09-07T02:43:26.168Z,97820.53
2022-09-07T02:46:11.459Z,97820.50
2022-09-07T02:48:59.611Z,97829.58
2022-09-07T02:52:03.343Z,97829.79
2022-09-07T02:55:15.589Z,97824.91
2022-09-07T02:58:14.219Z,97827.48
2022-09-07T03:01:27.018Z,97837.39
2022-09-07T03:04:26.012Z,97833.55
2022-09-07T03:06:59.180Z,97839.59
2022-09-07T03:09:31.426Z,97843.36
2022-09-07T03:12:07.036Z,97830.51
2022-09-07T03:14:35.713Z,97832.59
2022-09-07T03:17:03.705Z,97829.39
2022-09-07T03:19:31.334Z,97828.71
2022-09-07T03:21:59.306Z,97826.55
2022-09-07T03:24:27.236Z,97829.75
2022-09-07T03:26:54.998Z,97830.32
2022-09-07T03:29:22.701Z,97830.67
2022-09-07T03:31:50.621Z,97833.19
2022-09-07T03:34:18.606Z,97837.02
2022-09-07T03:36:46.357Z,97837.16
2022-09-07T03:39:14.360Z,97839.64
2022-09-07T03:41:42.069Z,97842.83
2022-09-07T03:44:11.398Z,97840.55
2022-09-07T03:46:39.424Z,97836.70
2022-09-07T03:49:07.226Z,97838.97
2022-09-07T03:51:35.052Z,97832.58
2022-09-07T03:54:02.842Z,97835.06
2022-09-07T03:56:30.669Z,97834.13
2022-09-07T03:58:59.187Z,97836.86
2022-09-07T04:01:27.466Z,97836.83
2022-09-07T04:04:02.006Z,97836.36
2022-09-07T04:06:29.409Z,97834.88
2022-09-07T04:09:02.981Z,97839.98
2022-09-07T04:11:31.479Z,97848.17
2022-09-07T04:13:59.298Z,97844.55
2022-09-07T04:16:27.867Z,97846.84
2022-09-07T04:18:55.884Z,97851.40
2022-09-07T04:21:25.465Z,97852.08
2022-09-07T04:23:53.621Z,97857.43
2022-09-07T04:26:25.808Z,97860.88
2022-09-07T04:28:54.203Z,97860.98
2022-09-07T04:31:23.964Z,97858.61
2022-09-07T04:33:53.505Z,97853.26
2022-09-07T04:36:24.111Z,97852.80
2022-09-07T04:38:59.350Z,97856.67
2022-09-07T04:41:28.766Z,97860.54
2022-09-07T04:44:02.228Z,97863.48
2022-09-07T04:46:34.029Z,97864.52
2022-09-07T04:49:06.454Z,97859.15
2022-09-07T04:51:35.333Z,97868.48
2022-09-07T04:54:04.806Z,97861.20
2022-09-07T04:56:33.265Z,97856.86
2022-09-07T04:59:02.183Z,97865.47
2022-09-07T05:01:30.242Z,97861.34
2022-09-07T05:04:00.756Z,97851.57
2022-09-07T05:06:29.894Z,97859.50
2022-09-07T05:08:59.378Z,97851.06
2022-09-07T05:11:29.728Z,97845.34
2022-09-07T05:14:00.661Z,97846.84
2022-09-07T05:16:29.958Z,97853.34
2022-09-07T05:19:01.283Z,97850.61
2022-09-07T05:21:32.742Z,97848.78
2022-09-07T05:24:01.937Z,97848.33
2022-09-07T05:26:33.525Z,97849.37
2022-09-07T05:31:33.898Z,97846.75
2022-09-07T05:36:32.077Z,97856.77
2022-09-07T05:38:59.899Z,97857.78
2022-09-07T05:41:27.732Z,97860.52
2022-09-07T05:46:25.531Z,97859.29
2022-09-07T05:48:53.327Z,97861.45
2022-09-07T05:51:21.099Z,97867.48
2022-09-07T05:53:50.106Z,97858.36
2022-09-07T05:56:17.932Z,97862.67
2022-09-07T05:58:50.433Z,97870.17
2022-09-07T06:01:18.506Z,97874.94
2022-09-07T06:03:46.566Z,97875.16
2022-09-07T06:06:18.314Z,97874.72
2022-09-07T06:08:50.569Z,97888.79
2022-09-07T06:11:23.608Z,97886.27
2022-09-07T06:13:51.980Z,97887.84
2022-09-07T06:16:20.085Z,97885.20
2022-09-07T06:18:49.472Z,97882.11
2022-09-07T06:21:23.337Z,97878.23
2022-09-07T06:23:51.512Z,97877.08
2022-09-07T06:26:19.587Z,97880.70
2022-09-07T06:28:50.345Z,97882.52
2022-09-07T06:31:21.636Z,97888.20
2022-09-07T06:33:50.633Z,97897.55
2022-09-07T06:36:22.738Z,97906.44
2022-09-07T06:38:52.250Z,97914.98
2022-09-07T06:43:57.739Z,97914.20
2022-09-07T06:48:56.634Z,97915.79
2022-09-07T06:51:29.127Z,97913.78
2022-09-07T06:56:27.676Z,97913.30
2022-09-07T06:58:56.475Z,97913.95
2022-09-07T07:01:24.909Z,97916.45
2022-09-07T07:03:53.738Z,97914.61
2022-09-07T07:06:22.035Z,97918.34
2022-09-07T07:08:53.894Z,97916.49
2022-09-07T07:11:21.586Z,97920.91
2022-09-07T07:13:49.491Z,97918.81
2022-09-07T07:16:17.847Z,97915.39
2022-09-07T07:18:48.055Z,97921.31
2022-09-07T07:21:15.888Z,97919.95
2022-09-07T07:23:43.746Z,97921.53
2022-09-07T07:26:17.911Z,97921.74
2022-09-07T07:29:06.809Z,97916.28
2022-09-07T07:31:24.963Z,97915.13
2022-09-07T07:33:53.506Z,97922.20
2022-09-07T07:36:26.792Z,97919.69
2022-09-07T07:44:00.561Z,97930.45
2022-09-07T07:46:29.890Z,97930.08
2022-09-07T07:48:58.384Z,97926.23
2022-09-07T07:51:26.654Z,97932.81
2022-09-07T07:53:54.848Z,97940.80
2022-09-07T07:56:23.501Z,97941.16
2022-09-07T07:58:52.046Z,97933.75
2022-09-07T08:01:19.969Z,97938.16
2022-09-07T08:03:48.612Z,97946.46
2022-09-07T08:06:19.430Z,97939.81
2022-09-07T08:08:48.289Z,97953.22
2022-09-07T08:11:19.760Z,97959.36
2022-09-07T08:13:49.520Z,97956.35
2022-09-07T08:16:18.117Z,97950.25
2022-09-07T08:18:47.108Z,97942.16
2022-09-07T08:21:16.750Z,97936.84
2022-09-07T08:23:44.349Z,97937.27
2022-09-07T08:26:11.981Z,97937.22
2022-09-07T08:28:41.962Z,97949.98
2022-09-07T08:31:13.185Z,97940.50
2022-09-07T08:33:41.569Z,97935.85
2022-09-07T08:36:13.419Z,97931.41
2022-09-07T08:38:41.422Z,97921.63
2022-09-07T08:41:40.143Z,97927.12
2022-09-07T08:44:30.945Z,97922.14
2022-09-07T08:47:38.053Z,97914.86
2022-09-07T08:50:38.385Z,97915.00
2022-09-07T08:53:16.345Z,97914.30
2022-09-07T08:55:52.135Z,97914.27
2022-09-07T08:58:49.161Z,97914.42
2022-09-07T09:01:36.704Z,97918.55
2022-09-07T09:06:56.880Z,97916.88
2022-09-07T09:10:02.223Z,97911.36
2022-09-07T09:12:39.945Z,97910.54
2022-09-07T09:15:20.674Z,97913.57
2022-09-07T09:18:14.637Z,97909.36
2022-09-07T09:20:52.838Z,97906.27
2022-09-07T09:23:26.436Z,97906.16
2022-09-07T09:26:17.207Z,97903.47
2022-09-07T09:28:44.693Z,97900.34
2022-09-07T09:31:19.225Z,97900.55
2022-09-07T09:34:06.726Z,97894.52
2022-09-07T09:36:41.417Z,97888.75
2022-09-07T09:39:31.069Z,97894.73
2022-09-07T09:42:15.197Z,97891.03
2022-09-07T09:44:43.858Z,97889.37
2022-09-07T09:47:35.437Z,97886.00
2022-09-07T09:52:29.039Z,97879.02
2022-09-07T09:52:51.595Z,97885.22
2022-09-07T09:55:34.873Z,97876.20
2022-09-07T10:01:23.760Z,97875.32
2022-09-07T10:06:10.363Z,97864.91
2022-09-07T10:08:38.065Z,97868.45
2022-09-07T10:11:09.838Z,97866.45
2022-09-07T10:13:46.881Z,97868.23
2022-09-07T10:16:14.744Z,97870.80
2022-09-07T10:18:58.246Z,97876.50
2022-09-07T10:21:29.686Z,97871.38
2022-09-07T10:24:01.949Z,97874.13
2022-09-07T10:26:38.175Z,97877.61
2022-09-07T10:29:30.876Z,97874.85
2022-09-07T10:32:34.418Z,97872.70
2022-09-07T10:35:25.141Z,97872.15
2022-09-07T10:38:18.348Z,97871.19
2022-09-07T10:40:54.399Z,97870.80
2022-09-07T10:43:44.596Z,97870.80
2022-09-07T10:47:02.198Z,97868.66
2022-09-07T10:50:21.782Z,97868.66
2022-09-07T10:52:23.180Z,97873.78
2022-09-07T10:55:08.109Z,97869.64
2022-09-07T10:58:13.152Z,97869.84
2022-09-07T11:01:08.239Z,97872.39
2022-09-07T11:04:24.074Z,97874.95
2022-09-07T11:06:57.077Z,97864.88
2022-09-07T11:09:47.947Z,97868.56
2022-09-07T11:12:27.365Z,97862.81
2022-09-07T11:15:18.980Z,97862.17
2022-09-07T11:17:57.862Z,97859.83
2022-09-07T11:20:31.740Z,97855.28
2022-09-07T11:23:11.619Z,97867.86
2022-09-07T11:26:07.230Z,97857.39
2022-09-07T11:31:39.188Z,97860.87
2022-09-07T11:34:33.537Z,97857.31
2022-09-07T11:37:18.784Z,97854.28
2022-09-07T11:40:16.070Z,97857.14
2022-09-07T11:42:52.408Z,97845.69
2022-09-07T11:45:36.031Z,97850.23
2022-09-07T11:48:20.963Z,97845.24
2022-09-07T11:50:57.086Z,97849.32
2022-09-07T11:53:28.941Z,97850.89
2022-09-07T11:56:04.600Z,97848.19
2022-09-07T11:59:01.933Z,97848.86
2022-09-07T12:01:53.162Z,97837.14
2022-09-07T12:05:03.253Z,97831.39
2022-09-07T12:07:57.881Z,97826.75
2022-09-07T12:11:04.731Z,97829.89
2022-09-07T12:14:12.370Z,97828.34
2022-09-07T12:17:09.307Z,97830.33
2022-09-07T12:19:37.124Z,97815.94
2022-09-07T12:22:04.971Z,97811.62
2022-09-07T12:24:46.459Z,97809.45
2022-09-07T12:27:25.908Z,97808.06
2022-09-07T12:30:05.002Z,97809.05
2022-09-07T12:32:57.635Z,97808.45
2022-09-07T12:35:36.950Z,97811.80
2022-09-07T12:38:20.613Z,97812.02
2022-09-07T12:40:59.399Z,97805.11
2022-09-07T12:43:52.445Z,97804.12
2022-09-07T12:46:37.513Z,97801.53
2022-09-07T12:49:56.430Z,97795.42
2022-09-07T12:52:35.209Z,97792.83
2022-09-07T12:55:28.963Z,97787.15
2022-09-07T12:58:19.017Z,97788.94
2022-09-07T13:01:06.889Z,97792.48
2022-09-07T13:03:51.385Z,97786.98
2022-09-07T13:07:06.582Z,97782.13
2022-09-07T13:09:36.412Z,97780.16
2022-09-07T13:12:53.377Z,97781.92
2022-09-07T13:14:55.669Z,97783.08
2022-09-07T13:17:41.280Z,97778.34
2022-09-07T13:20:21.145Z,97781.12
2022-09-07T13:22:53.594Z,97781.47
2022-09-07T13:25:29.472Z,97778.33
2022-09-07T13:28:04.120Z,97776.75
2022-09-07T13:31:26.264Z,97775.36
2022-09-07T13:33:54.346Z,97777.88
2022-09-07T13:36:36.198Z,97774.91
2022-09-07T13:39:09.094Z,97782.36
2022-09-07T13:41:42.231Z,97778.63
2022-09-07T13:44:15.361Z,97775.08
2022-09-07T13:47:15.453Z,97770.69
2022-09-07T13:49:56.141Z,97767.75
2022-09-07T13:52:43.937Z,97771.64
2022-09-07T13:55:28.450Z,97766.87
2022-09-07T13:58:10.553Z,97759.19
2022-09-07T14:00:54.499Z,97767.48
2022-09-07T14:03:25.933Z,97762.35
2022-09-07T14:06:24.562Z,97758.82
2022-09-07T14:09:05.720Z,97759.98
2022-09-07T14:11:47.950Z,97758.41
2022-09-07T14:14:19.678Z,97763.77
2022-09-07T14:17:04.686Z,97764.34
2022-09-07T14:19:40.664Z,97764.72
2022-09-07T14:22:16.742Z,97763.92
2022-09-07T14:25:00.848Z,97770.03
2022-09-07T14:27:35.923Z,97767.80
2022-09-07T14:30:27.605Z,97764.66
2022-09-07T14:33:05.168Z,97767.42
2022-09-07T14:35:36.731Z,97764.86
2022-09-07T14:41:03.024Z,97762.14
2022-09-07T14:43:37.529Z,97761.77
2022-09-07T14:46:25.080Z,97762.18
2022-09-07T14:48:57.693Z,97769.29
2022-09-07T14:51:35.678Z,97763.34
2022-09-07T14:54:05.865Z,97758.39
2022-09-07T14:56:39.729Z,97761.92
2022-09-07T14:59:41.938Z,97753.83
2022-09-07T15:02:26.876Z,97749.15
2022-09-07T15:05:27.906Z,97753.50
2022-09-07T15:07:59.958Z,97745.21
2022-09-07T15:10:36.541Z,97745.61
2022-09-07T15:13:07.844Z,97745.98
2022-09-07T15:15:40.624Z,97748.22
2022-09-07T15:19:01.151Z,97757.12
2022-09-07T15:21:37.839Z,97747.06
2022-09-07T15:24:07.391Z,97752.22
2022-09-07T15:27:09.014Z,97745.52
2022-09-07T15:29:24.449Z,97746.94
2022-09-07T15:32:01.730Z,97737.06
2022-09-07T15:34:21.912Z,97742.23
2022-09-07T15:36:52.289Z,97748.95
2022-09-07T15:39:25.323Z,97743.28
2022-09-07T15:41:53.056Z,97739.34
2022-09-07T15:44:25.169Z,97743.32
2022-09-07T15:49:21.275Z,97739.53
2022-09-07T15:54:20.677Z,97729.87
2022-09-07T15:59:17.605Z,97728.86
2022-09-07T16:01:53.026Z,97732.61
2022-09-07T16:04:15.243Z,97728.85
2022-09-07T16:06:43.080Z,97732.20
2022-09-07T16:09:10.610Z,97727.46
2022-09-07T16:11:38.834Z,97728.27
2022-09-07T16:14:06.281Z,97732.40
2022-09-07T16:19:07.291Z,97729.02
2022-09-07T16:21:32.468Z,97724.47
2022-09-07T16:24:00.141Z,97724.22
2022-09-07T16:26:28.366Z,97723.78
2022-09-07T16:28:56.056Z,97723.14
2022-09-07T16:31:26.883Z,97723.31
2022-09-07T16:33:54.920Z,97727.18
2022-09-07T16:36:25.498Z,97731.23
2022-09-07T16:38:59.789Z,97736.11
2022-09-07T16:41:31.145Z,97736.00
2022-09-07T16:43:59.611Z,97736.28
2022-09-07T16:46:34.043Z,97734.27
2022-09-07T16:49:02.381Z,97731.06
2022-09-07T16:51:30.113Z,97729.42
2022-09-07T16:53:58.643Z,97731.68
2022-09-07T16:56:30.222Z,97732.39
2022-09-07T16:59:01.881Z,97730.75
2022-09-07T17:01:33.918Z,97727.92
2022-09-07T17:04:05.592Z,97729.65
2022-09-07T17:06:31.703Z,97721.95
2022-09-07T17:08:59.836Z,97728.00
2022-09-07T17:11:34.731Z,97726.39
2022-09-07T17:14:04.970Z,97732.64
2022-09-07T17:16:35.729Z,97732.40
2022-09-07T17:21:36.825Z,97744.09
2022-09-07T17:24:06.641Z,97747.92
2022-09-07T17:26:34.763Z,97749.84
2022-09-07T17:29:02.555Z,97756.84
2022-09-07T17:34:04.858Z,97750.13
2022-09-07T17:36:33.922Z,97750.56
2022-09-07T17:39:18.755Z,97747.31
2022-09-07T17:41:31.538Z,97749.75
2022-09-07T17:43:59.680Z,97749.25
2022-09-07T17:46:32.878Z,97754.39
2022-09-07T17:49:01.681Z,97758.98
2022-09-07T17:51:32.337Z,97761.98
2022-09-07T17:54:02.610Z,97755.02
2022-09-07T17:56:31.436Z,97760.82
2022-09-07T18:01:30.294Z,97770.44
2022-09-07T18:03:58.153Z,97776.61
2022-09-07T18:06:25.787Z,97783.98
2022-09-07T18:08:53.624Z,97787.97
2022-09-07T18:13:54.998Z,97790.27
2022-09-07T18:16:32.496Z,97795.41
2022-09-07T18:19:05.228Z,97794.09
2022-09-07T18:21:35.834Z,97793.78
2022-09-07T18:24:08.207Z,97788.51
2022-09-07T18:26:40.227Z,97789.53
2022-09-07T18:29:26.232Z,97795.36
2022-09-07T18:31:39.515Z,97800.19
2022-09-07T18:34:07.111Z,97804.09
2022-09-07T18:36:35.394Z,97810.37
2022-09-07T18:39:04.895Z,97806.43
2022-09-07T18:41:34.239Z,97807.15
2022-09-07T18:44:02.610Z,97805.85
2022-09-07T18:46:30.408Z,97801.84
2022-09-07T18:48:58.224Z,97807.26
2022-09-07T18:51:26.461Z,97810.23
2022-09-07T18:53:54.103Z,97807.36
2022-09-07T18:56:21.985Z,97802.16
2022-09-07T18:58:56.662Z,97799.72
2022-09-07T19:01:24.703Z,97796.70
2022-09-07T19:03:55.407Z,97801.66
2022-09-07T19:06:24.678Z,97808.22
2022-09-07T19:08:53.487Z,97804.63
2022-09-07T19:11:24.259Z,97805.58
2022-09-07T19:14:00.625Z,97800.30
2022-09-07T19:16:28.382Z,97805.20
2022-09-07T19:18:59.942Z,97809.17
2022-09-07T19:21:32.418Z,97798.27
2022-09-07T19:24:03.632Z,97803.40
2022-09-07T19:26:38.323Z,97789.91
2022-09-07T19:29:10.830Z,97798.58
2022-09-07T19:31:38.453Z,97798.78
2022-09-07T19:34:06.056Z,97796.39
2022-09-07T19:36:34.098Z,97790.70
2022-09-07T19:39:02.007Z,97798.71
2022-09-07T19:41:30.741Z,97805.34
2022-09-07T19:43:58.464Z,97802.16
2022-09-07T19:46:26.072Z,97798.48
2022-09-07T19:48:53.729Z,97800.02
2022-09-07T19:51:21.157Z,97799.16
2022-09-07T19:53:48.654Z,97794.40
2022-09-07T19:56:20.942Z,97797.43
2022-09-07T19:58:49.437Z,97801.59
2022-09-07T20:01:21.035Z,97800.72
2022-09-07T20:03:59.159Z,97807.14
2022-09-07T20:06:27.542Z,97801.73
2022-09-07T20:08:56.668Z,97795.39
2022-09-07T20:11:24.855Z,97796.47
2022-09-07T20:13:52.741Z,97794.59
2022-09-07T20:16:20.399Z,97795.30
2022-09-07T20:18:48.223Z,97793.98
2022-09-07T20:21:22.433Z,97797.67
2022-09-07T20:23:51.119Z,97784.70
2022-09-07T20:26:21.473Z,97795.42
2022-09-07T20:29:11.049Z,97791.12
2022-09-07T20:31:25.709Z,97792.91
2022-09-07T20:33:53.727Z,97784.28
2022-09-07T20:36:23.851Z,97787.22
2022-09-07T20:38:54.451Z,97788.96
2022-09-07T20:41:27.889Z,97789.09
2022-09-07T20:43:58.511Z,97795.71
2022-09-07T20:46:27.941Z,97789.45
2022-09-07T20:48:55.883Z,97798.66
2022-09-07T20:51:23.654Z,97791.24
2022-09-07T20:53:51.946Z,97797.42
2022-09-07T20:56:24.017Z,97802.77
2022-09-07T20:58:59.425Z,97809.77
2022-09-07T21:01:28.539Z,97804.20
2022-09-07T21:03:58.846Z,97797.41
2022-09-07T21:06:28.439Z,97797.11
2022-09-07T21:08:56.835Z,97794.08
2022-09-07T21:11:34.528Z,97795.52
2022-09-07T21:14:10.083Z,97803.96
2022-09-07T21:16:38.433Z,97808.13
2022-09-07T21:19:10.609Z,97802.94
2022-09-07T21:21:42.691Z,97807.73
2022-09-07T21:24:18.059Z,97803.51
2022-09-07T21:26:47.198Z,97809.52
2022-09-07T21:29:23.810Z,97808.39
2022-09-07T21:31:55.424Z,97812.34
2022-09-07T21:34:23.610Z,97820.20
2022-09-07T21:36:52.011Z,97810.64
2022-09-07T21:39:20.317Z,97809.03
2022-09-07T21:41:47.773Z,97808.82
2022-09-07T21:44:16.039Z,97809.61
2022-09-07T21:46:44.304Z,97802.78
2022-09-07T21:49:12.040Z,97799.05
2022-09-07T21:51:39.865Z,97807.03
2022-09-07T21:54:07.628Z,97804.20
2022-09-07T21:56:35.398Z,97804.33
2022-09-07T21:59:04.100Z,97806.84
2022-09-07T22:01:32.252Z,97805.02
2022-09-07T22:04:03.580Z,97810.06
2022-09-07T22:06:33.415Z,97810.33
2022-09-07T22:09:01.816Z,97806.05
2022-09-07T22:11:30.521Z,97806.64
2022-09-07T22:14:02.198Z,97801.02
2022-09-07T22:16:32.381Z,97801.72
2022-09-07T22:19:00.393Z,97800.95
2022-09-07T22:21:29.560Z,97796.17
2022-09-07T22:24:01.585Z,97797.23
2022-09-07T22:26:34.776Z,97796.92
2022-09-07T22:29:02.394Z,97798.52
2022-09-07T22:31:33.458Z,97795.00
2022-09-07T22:34:03.570Z,97794.42
2022-09-07T22:36:36.268Z,97789.97
2022-09-07T22:39:08.539Z,97785.30
2022-09-07T22:41:38.638Z,97786.45
2022-09-07T22:44:12.562Z,97783.25
2022-09-07T22:46:43.119Z,97782.98
2022-09-07T22:49:14.520Z,97777.05
2022-09-07T22:51:42.681Z,97774.53
2022-09-07T22:54:10.397Z,97774.53
2022-09-07T22:56:38.628Z,97776.37
2022-09-07T22:59:08.528Z,97776.83
2022-09-07T23:01:36.666Z,97763.52
2022-09-07T23:04:06.201Z,97767.75
2022-09-07T23:06:37.375Z,97769.02
2022-09-07T23:09:15.702Z,97770.51
2022-09-07T23:11:45.265Z,97767.11
2022-09-07T23:14:17.622Z,97772.22
2022-09-07T23:16:46.195Z,97774.64
2022-09-07T23:19:16.326Z,97774.90
2022-09-07T23:21:44.394Z,97776.28
2022-09-07T23:24:15.955Z,97779.05
2022-09-07T23:26:44.153Z,97772.34
2022-09-07T23:29:14.001Z,97762.48
2022-09-07T23:31:42.274Z,97760.44
2022-09-07T23:34:09.946Z,97756.81
2022-09-07T23:36:37.671Z,97758.89
2022-09-07T23:39:05.206Z,97766.29
2022-09-07T23:41:33.120Z,97766.29
2022-09-07T23:44:01.107Z,97762.05
2022-09-07T23:46:28.787Z,97761.94
2022-09-07T23:48:56.193Z,97764.05
2022-09-07T23:51:24.794Z,97763.03
2022-09-07T23:53:53.173Z,97759.02
2022-09-07T23:56:23.390Z,97754.45
2022-09-07T23:58:50.989Z,97752.61
